Main page
METAR-TAF:

METAR-TAF

Airports :

Harbin, China

Harbin Taiping International Airport

latitude: 45-45N, longitude: 126-46E, elevation: 143 m

Current weather observation

The report was made 34 minutes ago, at 16:00 UTC
Wind 4 kt from the South
Temperature -18°C
Humidity 71%
Pressure 1019 hPa
Visibility 10 km or more
no clouds below 1500 m and no cumulonimbus

METAR: ZYHB 241600Z 18002MPS CAVOK M18/M22 Q1019 NOSIG

Time: 00:34 (16:34 UTC)

Forecast

The report was made 7 hours and 29 minutes ago, at 09:05 UTC
Forecast valid from 24 at 12 UTC to 25 at 12 UTC
Wind 8 kt from the Southwest
Visibility: 6000 m
Scattered clouds at a height of 3000 ft

TAF: ZYHB 240905Z 2412/2512 22004MPS 6000 SCT030 TXM09/06Z TNM18/22Z

Weather observations and forecasts of more than 4000 airports (METAR and TAF reports).

The available stations are represented by yellow and red dots on the map.

Hover mouse over dot to see the name of the station.

Then click to see weather observations and forecasts.

To change the map : click on the green buttons with a black cross to zoom in, on the green button with a dash to zoom out, or on the green arrows for adjacent maps.


METAR-TAF: